createdAt,value
2022-11-26T00:04:51.397Z,100.00
2022-11-26T00:09:58.521Z,100.00
2022-11-26T00:15:29.775Z,100.00
2022-11-26T00:20:32.365Z,100.00
2022-11-26T00:25:44.779Z,100.00
2022-11-26T00:30:47.313Z,100.00
2022-11-26T00:35:54.033Z,100.00
2022-11-26T00:40:57.197Z,100.00
2022-11-26T00:45:59.967Z,100.00
2022-11-26T00:51:02.534Z,100.00
2022-11-26T00:56:05.227Z,100.00
2022-11-26T01:01:10.421Z,100.00
2022-11-26T01:06:21.218Z,100.00
2022-11-26T01:11:25.046Z,100.00
2022-11-26T01:16:27.497Z,100.00
2022-11-26T01:21:31.618Z,100.00
2022-11-26T01:26:38.832Z,100.00
2022-11-26T01:31:41.341Z,100.00
2022-11-26T01:36:44.772Z,100.00
2022-11-26T01:41:47.260Z,100.00
2022-11-26T01:46:51.795Z,100.00
2022-11-26T01:52:05.144Z,100.00
2022-11-26T01:57:16.093Z,100.00
2022-11-26T02:02:19.982Z,100.00
2022-11-26T02:07:22.892Z,100.00
2022-11-26T02:12:25.367Z,100.00
2022-11-26T02:17:43.824Z,100.00
2022-11-26T02:22:55.427Z,100.00
2022-11-26T02:28:15.126Z,100.00
2022-11-26T02:33:49.257Z,100.00
2022-11-26T02:38:51.880Z,100.00
2022-11-26T02:43:54.401Z,100.00
2022-11-26T02:48:56.834Z,100.00
2022-11-26T02:54:00.801Z,100.00
2022-11-26T02:59:06.194Z,100.00
2022-11-26T03:04:14.610Z,100.00
2022-11-26T03:09:18.141Z,100.00
2022-11-26T03:14:20.474Z,100.00
2022-11-26T03:19:22.870Z,100.00
2022-11-26T03:24:28.009Z,100.00
2022-11-26T03:29:30.796Z,100.00
2022-11-26T03:34:33.305Z,100.00
2022-11-26T03:39:35.908Z,100.00
2022-11-26T03:44:38.834Z,100.00
2022-11-26T03:49:41.338Z,100.00
2022-11-26T03:54:43.746Z,100.00
2022-11-26T03:59:46.135Z,100.00
2022-11-26T04:04:48.527Z,100.00
2022-11-26T04:09:50.858Z,100.00
2022-11-26T04:14:53.268Z,100.00
2022-11-26T04:19:55.640Z,100.00
2022-11-26T04:24:59.886Z,100.00
2022-11-26T04:30:02.217Z,100.00
2022-11-26T04:35:04.969Z,100.00
2022-11-26T04:40:08.298Z,100.00
2022-11-26T04:45:11.239Z,100.00
2022-11-26T04:50:13.715Z,100.00
2022-11-26T04:55:17.918Z,100.00
2022-11-26T05:00:20.747Z,100.00
2022-11-26T05:05:23.160Z,100.00
2022-11-26T05:10:26.804Z,100.00
2022-11-26T05:15:29.586Z,100.00
2022-11-26T05:20:32.128Z,100.00
2022-11-26T05:25:34.483Z,100.00
2022-11-26T05:30:37.401Z,100.00
2022-11-26T05:35:39.964Z,100.00
2022-11-26T05:40:42.398Z,100.00
2022-11-26T05:45:45.013Z,100.00
2022-11-26T05:50:51.593Z,100.00
2022-11-26T05:55:57.194Z,100.00
2022-11-26T06:00:59.857Z,100.00
2022-11-26T06:06:02.744Z,100.00
2022-11-26T06:11:05.218Z,100.00
2022-11-26T06:16:08.169Z,100.00
2022-11-26T06:21:11.624Z,100.00
2022-11-26T06:26:14.303Z,100.00
2022-11-26T06:31:16.776Z,100.00
2022-11-26T06:36:19.217Z,100.00
2022-11-26T06:41:21.588Z,100.00
2022-11-26T06:46:23.978Z,100.00
2022-11-26T06:51:27.842Z,100.00
2022-11-26T06:56:30.671Z,100.00
2022-11-26T07:01:33.183Z,100.00
2022-11-26T07:06:35.970Z,100.00
2022-11-26T07:11:40.010Z,100.00
2022-11-26T07:16:42.357Z,100.00
2022-11-26T07:21:44.753Z,100.00
2022-11-26T07:26:47.228Z,100.00
2022-11-26T07:31:49.695Z,100.00
2022-11-26T07:36:56.757Z,100.00
2022-11-26T07:42:01.091Z,100.00
2022-11-26T07:47:04.426Z,100.00
2022-11-26T07:52:06.826Z,100.00
2022-11-26T07:57:10.320Z,100.00
2022-11-26T08:02:15.914Z,100.00
2022-11-26T08:07:24.621Z,100.00
2022-11-26T08:12:30.691Z,100.00
2022-11-26T08:17:33.157Z,100.00
2022-11-26T08:22:35.521Z,100.00
2022-11-26T08:27:37.982Z,100.00
2022-11-26T08:32:40.393Z,100.00
2022-11-26T08:37:42.827Z,100.00
2022-11-26T08:42:45.200Z,100.00
2022-11-26T08:47:47.645Z,100.00
2022-11-26T08:52:50.057Z,100.00
2022-11-26T08:57:52.489Z,100.00
2022-11-26T09:02:54.963Z,100.00
2022-11-26T09:07:57.532Z,100.00
2022-11-26T09:13:00.124Z,100.00
2022-11-26T09:18:03.871Z,100.00
2022-11-26T09:23:06.367Z,100.00
2022-11-26T09:28:08.786Z,100.00
2022-11-26T09:33:11.173Z,100.00
2022-11-26T09:38:13.510Z,100.00
2022-11-26T09:43:24.671Z,100.00
2022-11-26T09:48:30.605Z,100.00
2022-11-26T09:53:41.782Z,100.00
2022-11-26T09:59:03.612Z,100.00
2022-11-26T10:04:16.869Z,100.00
2022-11-26T10:09:28.204Z,100.00
2022-11-26T10:15:01.402Z,100.00
2022-11-26T10:20:36.449Z,100.00
2022-11-26T10:26:05.533Z,100.00
2022-11-26T10:31:19.962Z,100.00
2022-11-26T10:36:34.820Z,100.00
2022-11-26T10:41:38.048Z,100.00
2022-11-26T10:46:40.928Z,100.00
2022-11-26T10:51:48.586Z,99.63
2022-11-26T10:56:55.108Z,96.28
2022-11-26T11:02:26.011Z,90.89
2022-11-26T11:07:34.063Z,90.49
2022-11-26T11:12:41.495Z,93.33
2022-11-26T11:17:45.465Z,95.18
2022-11-26T11:22:48.034Z,94.28
2022-11-26T11:27:51.267Z,88.06
2022-11-26T11:32:57.321Z,83.36
2022-11-26T11:38:00.326Z,66.30
2022-11-26T11:43:05.274Z,58.94
2022-11-26T11:48:16.151Z,52.56
2022-11-26T11:53:30.270Z,52.67
2022-11-26T11:58:47.786Z,59.35
2022-11-26T12:04:21.168Z,66.01
2022-11-26T12:09:53.039Z,60.41
2022-11-26T12:15:06.855Z,56.70
2022-11-26T12:20:25.692Z,52.76
2022-11-26T12:25:37.290Z,45.59
2022-11-26T12:31:05.841Z,43.23
2022-11-26T12:36:17.454Z,51.00
2022-11-26T12:41:26.113Z,58.48
2022-11-26T12:46:45.649Z,66.35
2022-11-26T12:51:53.676Z,69.92
2022-11-26T12:57:15.499Z,72.89
2022-11-26T13:02:30.546Z,73.53
2022-11-26T13:07:35.816Z,76.42
2022-11-26T13:12:55.561Z,74.95
2022-11-26T13:18:01.243Z,75.25
2022-11-26T13:23:15.646Z,76.87
2022-11-26T13:28:36.180Z,78.37
2022-11-26T13:33:57.057Z,78.58
2022-11-26T13:39:02.477Z,78.90
2022-11-26T13:44:16.781Z,79.15
2022-11-26T13:49:32.600Z,79.71
2022-11-26T13:54:42.670Z,82.94
2022-11-26T13:59:51.465Z,83.98
2022-11-26T14:04:54.312Z,82.73
2022-11-26T14:10:00.221Z,83.52
2022-11-26T14:15:02.881Z,83.38
2022-11-26T14:20:06.149Z,82.41
2022-11-26T14:25:13.344Z,84.31
2022-11-26T14:30:24.753Z,86.99
2022-11-26T14:35:34.078Z,87.74
2022-11-26T14:40:38.452Z,89.41
2022-11-26T14:45:42.451Z,88.63
2022-11-26T14:50:45.904Z,88.29
2022-11-26T14:55:50.003Z,91.29
2022-11-26T15:01:07.337Z,88.63
2022-11-26T15:06:38.073Z,91.45
2022-11-26T15:11:47.352Z,95.82
2022-11-26T15:16:56.522Z,98.53
2022-11-26T15:22:00.339Z,98.72
2022-11-26T15:27:02.974Z,99.97
2022-11-26T15:32:05.706Z,100.00
2022-11-26T15:37:08.211Z,100.00
2022-11-26T15:42:30.172Z,100.00
2022-11-26T15:47:32.975Z,100.00
2022-11-26T15:52:37.120Z,100.00
2022-11-26T15:57:42.007Z,100.00
2022-11-26T16:02:45.425Z,100.00
2022-11-26T16:08:03.350Z,100.00
2022-11-26T16:13:19.752Z,100.00
2022-11-26T16:18:25.952Z,100.00
2022-11-26T16:23:30.043Z,100.00
2022-11-26T16:28:32.663Z,100.00
2022-11-26T16:33:35.024Z,100.00
2022-11-26T16:38:37.391Z,100.00
2022-11-26T16:43:39.786Z,100.00
2022-11-26T16:48:43.205Z,100.00
2022-11-26T16:53:45.876Z,100.00
2022-11-26T16:58:48.786Z,100.00
2022-11-26T17:03:51.347Z,100.00
2022-11-26T17:08:56.499Z,100.00
2022-11-26T17:13:59.053Z,100.00
2022-11-26T17:19:01.952Z,100.00
2022-11-26T17:24:04.597Z,100.00
2022-11-26T17:29:07.076Z,100.00
2022-11-26T17:34:09.512Z,100.00
2022-11-26T17:39:12.241Z,100.00
2022-11-26T17:44:14.597Z,100.00
2022-11-26T17:49:17.216Z,100.00
2022-11-26T17:54:19.843Z,100.00
2022-11-26T17:59:23.947Z,100.00
2022-11-26T18:04:26.531Z,100.00
2022-11-26T18:09:29.024Z,100.00
2022-11-26T18:14:35.552Z,100.00
2022-11-26T18:19:43.363Z,100.00
2022-11-26T18:24:57.056Z,100.00
2022-11-26T18:30:00.552Z,100.00
2022-11-26T18:35:03.439Z,100.00
2022-11-26T18:40:17.112Z,100.00
2022-11-26T18:45:19.574Z,100.00
2022-11-26T18:50:21.996Z,100.00
2022-11-26T18:55:24.364Z,100.00
2022-11-26T19:00:26.760Z,100.00
2022-11-26T19:05:29.203Z,100.00
2022-11-26T19:10:33.005Z,100.00
2022-11-26T19:15:40.161Z,100.00
2022-11-26T19:20:52.841Z,100.00
2022-11-26T19:25:56.389Z,100.00
2022-11-26T19:31:03.973Z,100.00
2022-11-26T19:36:12.850Z,100.00
2022-11-26T19:41:15.399Z,100.00
2022-11-26T19:46:20.442Z,100.00
2022-11-26T19:51:24.552Z,100.00
2022-11-26T19:56:29.862Z,100.00
2022-11-26T20:01:34.735Z,100.00
2022-11-26T20:06:38.805Z,100.00
2022-11-26T20:11:42.242Z,100.00
2022-11-26T20:16:45.675Z,100.00
2022-11-26T20:21:50.573Z,100.00
2022-11-26T20:26:53.188Z,100.00
2022-11-26T20:31:55.878Z,100.00
2022-11-26T20:36:58.429Z,100.00
2022-11-26T20:42:01.302Z,100.00
2022-11-26T20:47:03.772Z,100.00
2022-11-26T20:52:09.615Z,100.00
2022-11-26T20:57:11.990Z,100.00
2022-11-26T21:02:15.580Z,100.00
2022-11-26T21:07:18.486Z,100.00
2022-11-26T21:12:20.998Z,100.00
2022-11-26T21:17:23.536Z,100.00
2022-11-26T21:22:26.039Z,100.00
2022-11-26T21:27:28.533Z,100.00
2022-11-26T21:32:31.235Z,100.00
2022-11-26T21:37:33.896Z,100.00
2022-11-26T21:42:36.424Z,100.00
2022-11-26T21:47:38.767Z,100.00
2022-11-26T21:52:41.124Z,100.00
2022-11-26T21:57:43.510Z,100.00
2022-11-26T22:02:45.959Z,100.00
2022-11-26T22:07:48.610Z,100.00
2022-11-26T22:12:51.435Z,100.00
2022-11-26T22:17:55.806Z,100.00
2022-11-26T22:22:58.149Z,100.00
2022-11-26T22:28:00.902Z,100.00
2022-11-26T22:33:05.491Z,100.00
2022-11-26T22:38:07.891Z,100.00
2022-11-26T22:43:10.731Z,100.00
2022-11-26T22:48:13.306Z,100.00
2022-11-26T22:53:15.717Z,100.00
2022-11-26T22:58:19.362Z,100.00
2022-11-26T23:03:22.467Z,100.00
2022-11-26T23:08:25.024Z,100.00
2022-11-26T23:13:27.419Z,100.00
2022-11-26T23:18:29.909Z,100.00
2022-11-26T23:23:32.889Z,100.00
2022-11-26T23:28:36.463Z,100.00
2022-11-26T23:33:38.815Z,100.00
2022-11-26T23:38:41.787Z,100.00
2022-11-26T23:43:45.215Z,100.00
2022-11-26T23:48:48.518Z,100.00
2022-11-26T23:53:51.817Z,100.00
2022-11-26T23:58:57.320Z,100.00
